createdAt,value
2018-07-30T00:00:05.038Z,62.75
2018-07-30T00:02:44.282Z,62.58
2018-07-30T00:05:15.953Z,62.92
2018-07-30T00:07:48.268Z,63.08
2018-07-30T00:10:19.980Z,61.85
2018-07-30T00:12:51.628Z,61.30
2018-07-30T00:15:23.285Z,60.35
2018-07-30T00:17:54.677Z,63.16
2018-07-30T00:20:26.470Z,61.73
2018-07-30T00:22:58.540Z,62.83
2018-07-30T00:25:30.418Z,65.34
2018-07-30T00:28:02.421Z,64.98
2018-07-30T00:30:34.127Z,64.74
2018-07-30T00:33:05.891Z,64.14
2018-07-30T00:35:37.593Z,64.43
2018-07-30T00:38:09.564Z,64.36
2018-07-30T00:40:41.608Z,62.78
2018-07-30T00:43:13.243Z,63.93
2018-07-30T00:45:44.705Z,63.53
2018-07-30T00:48:16.514Z,63.71
2018-07-30T00:50:48.415Z,63.00
2018-07-30T00:53:20.229Z,63.03
2018-07-30T00:55:51.918Z,63.57
2018-07-30T00:58:23.998Z,64.53
2018-07-30T01:00:55.633Z,63.55
2018-07-30T01:03:27.282Z,64.39
2018-07-30T01:05:58.744Z,63.52
2018-07-30T01:08:30.350Z,63.51
2018-07-30T01:11:01.990Z,63.96
2018-07-30T01:13:33.981Z,63.85
2018-07-30T01:16:05.706Z,62.78
2018-07-30T01:18:37.617Z,63.31
2018-07-30T01:21:09.531Z,63.19
2018-07-30T01:23:41.399Z,62.05
2018-07-30T01:26:17.711Z,61.51
2018-07-30T01:28:49.565Z,61.45
2018-07-30T01:31:21.058Z,60.63
2018-07-30T01:33:52.930Z,61.36
2018-07-30T01:36:24.606Z,61.62
2018-07-30T01:38:56.516Z,59.96
2018-07-30T01:41:28.075Z,60.38
2018-07-30T01:43:59.488Z,60.69
2018-07-30T01:46:31.206Z,61.11
2018-07-30T01:49:03.213Z,61.44
2018-07-30T01:51:34.986Z,58.98
2018-07-30T01:54:07.107Z,61.84
2018-07-30T01:56:38.979Z,66.89
2018-07-30T01:59:11.005Z,68.05
2018-07-30T02:01:42.555Z,68.52
2018-07-30T02:04:14.309Z,67.38
2018-07-30T02:06:45.986Z,67.79
2018-07-30T02:09:17.680Z,68.57
2018-07-30T02:11:49.542Z,67.38
2018-07-30T02:14:21.342Z,68.28
2018-07-30T02:16:53.048Z,66.36
2018-07-30T02:19:24.841Z,67.33
2018-07-30T02:21:56.562Z,68.01
2018-07-30T02:24:28.313Z,67.86
2018-07-30T02:29:26.420Z,65.65
2018-07-30T02:31:59.119Z,67.97
2018-07-30T02:34:30.923Z,66.01
2018-07-30T02:37:02.948Z,67.12
2018-07-30T02:39:34.368Z,67.02
2018-07-30T02:42:11.127Z,67.05
2018-07-30T02:44:42.933Z,67.38
2018-07-30T02:47:14.331Z,66.15
2018-07-30T02:49:46.173Z,67.82
2018-07-30T02:52:17.805Z,67.42
2018-07-30T02:54:50.290Z,67.58
2018-07-30T02:57:22.045Z,65.64
2018-07-30T02:59:53.820Z,67.04
2018-07-30T03:02:25.825Z,66.99
2018-07-30T03:04:57.658Z,68.42
2018-07-30T03:07:29.585Z,68.22
2018-07-30T03:10:01.378Z,66.93
2018-07-30T03:12:33.365Z,67.50
2018-07-30T03:15:05.123Z,67.16
2018-07-30T03:17:37.104Z,68.82
2018-07-30T03:20:08.708Z,67.46
2018-07-30T03:22:40.871Z,59.55
2018-07-30T03:25:12.977Z,64.10
2018-07-30T03:27:44.580Z,65.85
2018-07-30T03:30:16.203Z,67.85
2018-07-30T03:32:48.099Z,66.35
2018-07-30T03:35:20.158Z,68.40
2018-07-30T03:37:52.147Z,67.00
2018-07-30T03:40:23.926Z,70.06
2018-07-30T03:42:55.777Z,70.81
2018-07-30T03:45:28.038Z,71.65
2018-07-30T03:47:59.599Z,72.11
2018-07-30T03:50:31.349Z,71.42
2018-07-30T03:53:02.812Z,72.75
2018-07-30T03:55:35.355Z,71.94
2018-07-30T03:58:07.324Z,72.59
2018-07-30T04:00:39.108Z,73.08
2018-07-30T04:03:11.128Z,72.15
2018-07-30T04:05:42.978Z,73.41
2018-07-30T04:08:15.035Z,72.85
2018-07-30T04:10:46.957Z,72.91
2018-07-30T04:13:18.932Z,73.81
2018-07-30T04:15:50.771Z,72.71
2018-07-30T04:18:22.577Z,73.34
2018-07-30T04:20:59.312Z,73.68
2018-07-30T04:23:31.218Z,74.11
2018-07-30T04:26:03.111Z,73.77
2018-07-30T04:28:34.794Z,73.56
2018-07-30T04:31:06.846Z,74.14
2018-07-30T04:33:38.791Z,74.97
2018-07-30T04:36:10.672Z,74.18
2018-07-30T04:38:42.666Z,73.42
2018-07-30T04:41:14.445Z,74.31
2018-07-30T04:43:46.603Z,74.38
2018-07-30T04:46:18.536Z,74.57
2018-07-30T04:48:50.627Z,64.37
2018-07-30T04:51:22.680Z,64.19
2018-07-30T04:53:55.117Z,66.49
2018-07-30T04:56:27.160Z,68.15
2018-07-30T04:58:59.417Z,66.65
2018-07-30T05:01:31.441Z,65.82
2018-07-30T05:04:04.111Z,67.62
2018-07-30T05:06:35.912Z,65.78
2018-07-30T05:09:10.433Z,65.85
2018-07-30T05:11:42.737Z,67.34
2018-07-30T05:14:15.110Z,66.99
2018-07-30T05:16:47.149Z,66.03
2018-07-30T05:19:19.553Z,66.70
2018-07-30T05:21:51.790Z,67.24
2018-07-30T05:24:23.827Z,66.75
2018-07-30T05:26:55.906Z,67.47
2018-07-30T05:29:28.112Z,66.93
2018-07-30T05:32:00.363Z,67.90
2018-07-30T05:34:32.458Z,68.66
2018-07-30T05:37:04.278Z,71.49
2018-07-30T05:39:36.472Z,71.94
2018-07-30T05:42:08.865Z,72.49
2018-07-30T05:44:41.224Z,71.96
2018-07-30T05:47:13.443Z,72.62
2018-07-30T05:49:45.370Z,72.33
2018-07-30T05:52:17.573Z,71.46
2018-07-30T05:54:50.411Z,68.94
2018-07-30T05:57:22.037Z,69.10
2018-07-30T05:59:54.061Z,71.98
2018-07-30T06:02:26.150Z,72.98
2018-07-30T06:04:58.161Z,72.92
2018-07-30T06:07:30.269Z,73.44
2018-07-30T06:10:17.939Z,73.71
2018-07-30T06:12:50.317Z,73.95
2018-07-30T06:15:22.399Z,73.12
2018-07-30T06:17:55.597Z,74.30
2018-07-30T06:20:28.124Z,74.00
2018-07-30T06:23:00.169Z,74.73
2018-07-30T06:25:32.179Z,74.29
2018-07-30T06:28:04.108Z,74.06
2018-07-30T06:30:36.155Z,74.18
2018-07-30T06:33:08.467Z,73.51
2018-07-30T06:35:40.431Z,72.52
2018-07-30T06:38:12.513Z,72.70
2018-07-30T06:40:44.700Z,71.63
2018-07-30T06:43:16.792Z,73.26
2018-07-30T06:45:49.507Z,73.46
2018-07-30T06:48:21.540Z,73.48
2018-07-30T06:50:53.882Z,73.39
2018-07-30T06:53:26.205Z,73.31
2018-07-30T06:55:59.374Z,72.78
2018-07-30T06:58:31.619Z,73.29
2018-07-30T07:01:04.313Z,73.37
2018-07-30T07:03:36.369Z,74.10
2018-07-30T07:06:08.781Z,73.69
2018-07-30T07:08:41.036Z,73.56
2018-07-30T07:11:13.153Z,73.80
2018-07-30T07:13:45.409Z,74.19
2018-07-30T07:16:17.393Z,73.10
2018-07-30T07:18:49.760Z,73.21
2018-07-30T07:21:22.378Z,72.94
2018-07-30T07:23:55.589Z,73.00
2018-07-30T07:26:27.979Z,73.02
2018-07-30T07:29:00.280Z,73.68
2018-07-30T07:31:33.383Z,73.34
2018-07-30T07:34:05.305Z,73.51
2018-07-30T07:36:37.893Z,73.63
2018-07-30T07:39:12.621Z,73.51
2018-07-30T07:41:45.230Z,74.17
2018-07-30T07:44:17.666Z,73.84
2018-07-30T07:46:50.008Z,74.09
2018-07-30T07:49:23.400Z,73.87
2018-07-30T07:51:55.957Z,74.14
2018-07-30T07:54:28.567Z,70.74
2018-07-30T07:57:03.203Z,73.12
2018-07-30T07:59:35.657Z,73.44
2018-07-30T08:02:08.221Z,73.88
2018-07-30T08:04:40.521Z,74.40
2018-07-30T08:07:13.810Z,73.11
2018-07-30T08:09:46.135Z,72.24
2018-07-30T08:12:20.915Z,71.66
2018-07-30T08:14:53.193Z,71.85
2018-07-30T08:17:25.320Z,72.22
2018-07-30T08:19:58.432Z,71.40
2018-07-30T08:22:31.144Z,71.33
2018-07-30T08:25:07.633Z,71.20
2018-07-30T08:27:40.346Z,70.45
2018-07-30T08:30:13.015Z,71.07
2018-07-30T08:32:45.748Z,70.79
2018-07-30T08:35:18.499Z,71.21
2018-07-30T08:37:51.183Z,72.49
2018-07-30T08:40:23.153Z,72.75
2018-07-30T08:42:55.500Z,72.37
2018-07-30T08:45:27.841Z,69.13
2018-07-30T08:48:00.278Z,71.11
2018-07-30T08:50:33.127Z,71.20
2018-07-30T08:53:05.514Z,71.60
2018-07-30T08:55:38.604Z,71.52
2018-07-30T08:58:11.973Z,70.96
2018-07-30T09:00:44.500Z,71.33
2018-07-30T09:03:17.090Z,71.68
2018-07-30T09:05:49.554Z,71.18
2018-07-30T09:08:21.920Z,71.67
2018-07-30T09:10:54.905Z,71.11
2018-07-30T09:13:29.569Z,69.71
2018-07-30T09:16:02.436Z,63.58
2018-07-30T09:18:35.219Z,67.46
2018-07-30T09:21:08.410Z,68.02
2018-07-30T09:23:41.242Z,68.22
2018-07-30T09:26:13.924Z,67.65
2018-07-30T09:28:46.683Z,67.37
2018-07-30T09:31:18.767Z,67.39
2018-07-30T09:33:51.534Z,67.81
2018-07-30T09:36:27.545Z,67.95
2018-07-30T09:39:02.152Z,68.19
2018-07-30T09:41:38.793Z,67.56
2018-07-30T09:44:19.768Z,67.63
2018-07-30T09:46:59.042Z,67.37
2018-07-30T09:49:42.878Z,66.86
2018-07-30T09:52:21.634Z,67.16
2018-07-30T09:55:02.549Z,67.16
2018-07-30T09:57:42.260Z,67.45
2018-07-30T10:00:24.463Z,66.83
2018-07-30T10:03:05.316Z,65.92
2018-07-30T10:05:43.318Z,66.81
2018-07-30T10:08:21.142Z,66.40
2018-07-30T10:11:01.440Z,67.17
2018-07-30T10:13:42.321Z,65.86
2018-07-30T10:16:24.068Z,65.75
2018-07-30T10:19:06.182Z,67.21
2018-07-30T10:21:46.718Z,65.94
2018-07-30T10:24:25.914Z,65.21
2018-07-30T10:27:02.036Z,66.10
2018-07-30T10:29:37.921Z,66.20
2018-07-30T10:32:14.270Z,66.00
2018-07-30T10:34:49.744Z,65.52
2018-07-30T10:37:26.619Z,65.79
2018-07-30T10:40:05.062Z,65.55
2018-07-30T10:42:48.582Z,64.77
2018-07-30T10:45:30.913Z,64.76
2018-07-30T10:48:09.144Z,64.22
2018-07-30T10:50:47.441Z,64.70
2018-07-30T10:53:24.444Z,64.59
2018-07-30T10:56:02.702Z,65.53
2018-07-30T10:58:40.371Z,66.19
2018-07-30T11:01:20.627Z,65.76
2018-07-30T11:04:00.131Z,65.44
2018-07-30T11:06:41.914Z,64.96
2018-07-30T11:09:19.481Z,66.10
2018-07-30T11:12:00.692Z,65.45
2018-07-30T11:14:39.641Z,64.79
2018-07-30T11:17:19.059Z,64.97
2018-07-30T11:19:56.274Z,65.58
2018-07-30T11:22:33.773Z,64.67
2018-07-30T11:25:09.855Z,65.17
2018-07-30T11:27:46.827Z,64.67
2018-07-30T11:30:22.865Z,64.84
2018-07-30T11:32:58.520Z,65.96
2018-07-30T11:35:36.450Z,65.77
2018-07-30T11:38:16.088Z,64.36
2018-07-30T11:40:51.539Z,65.71
2018-07-30T11:43:27.326Z,65.16
2018-07-30T11:46:05.057Z,65.06
2018-07-30T11:48:42.292Z,64.71
2018-07-30T11:51:18.025Z,64.46
2018-07-30T11:53:52.178Z,66.13
2018-07-30T11:56:25.617Z,65.61
2018-07-30T11:58:58.045Z,64.48
2018-07-30T12:01:30.552Z,65.10
2018-07-30T12:04:03.722Z,65.77
2018-07-30T12:06:41.705Z,65.35
2018-07-30T12:09:15.761Z,64.47
2018-07-30T12:11:48.616Z,64.38
2018-07-30T12:14:21.812Z,64.27
2018-07-30T12:16:56.846Z,64.50
2018-07-30T12:19:29.988Z,64.15
2018-07-30T12:22:02.619Z,64.67
2018-07-30T12:24:35.685Z,63.64
2018-07-30T12:27:08.598Z,65.02
2018-07-30T12:29:41.361Z,64.55
2018-07-30T12:32:15.513Z,65.00
2018-07-30T12:34:47.636Z,64.87
2018-07-30T12:37:20.613Z,64.35
2018-07-30T12:39:52.509Z,64.54
2018-07-30T12:42:24.941Z,64.72
2018-07-30T12:44:58.591Z,65.35
2018-07-30T12:47:32.869Z,63.80
2018-07-30T12:50:05.332Z,63.68
2018-07-30T12:52:37.489Z,63.91
2018-07-30T12:55:09.948Z,63.69
2018-07-30T12:57:45.092Z,64.87
2018-07-30T13:00:17.074Z,64.52
2018-07-30T13:02:49.979Z,64.97
2018-07-30T13:05:23.007Z,63.93
2018-07-30T13:07:55.517Z,64.67
2018-07-30T13:10:27.744Z,65.07
2018-07-30T13:13:00.215Z,63.36
2018-07-30T13:15:32.811Z,63.15
2018-07-30T13:18:04.912Z,64.56
2018-07-30T13:20:38.360Z,65.09
2018-07-30T13:23:10.330Z,64.04
2018-07-30T13:25:43.299Z,64.05
2018-07-30T13:28:15.922Z,62.83
2018-07-30T13:30:48.601Z,63.33
2018-07-30T13:33:21.109Z,63.86
2018-07-30T13:35:53.602Z,63.36
2018-07-30T13:38:26.307Z,62.79
2018-07-30T13:40:59.693Z,62.54
2018-07-30T13:43:33.180Z,64.76
2018-07-30T13:46:05.701Z,64.29
2018-07-30T13:48:38.012Z,64.81
2018-07-30T13:51:10.488Z,64.10
2018-07-30T13:53:42.762Z,62.31
2018-07-30T13:56:15.047Z,61.62
2018-07-30T13:58:47.437Z,62.30
2018-07-30T14:01:19.789Z,63.27
2018-07-30T14:03:51.799Z,63.24
2018-07-30T14:06:25.784Z,63.18
2018-07-30T14:08:58.568Z,64.75
2018-07-30T14:11:31.397Z,65.06
2018-07-30T14:14:03.856Z,64.73
2018-07-30T14:16:39.412Z,65.44
2018-07-30T14:19:12.034Z,64.98
2018-07-30T14:21:44.371Z,65.49
2018-07-30T14:24:16.564Z,65.62
2018-07-30T14:26:48.490Z,65.51
2018-07-30T14:29:21.008Z,65.14
2018-07-30T14:31:54.702Z,65.31
2018-07-30T14:34:27.660Z,65.36
2018-07-30T14:37:00.307Z,65.64
2018-07-30T14:39:32.371Z,65.70
2018-07-30T14:42:05.134Z,65.74
2018-07-30T14:44:37.784Z,65.52
2018-07-30T14:47:09.940Z,65.65
2018-07-30T14:49:42.085Z,65.38
2018-07-30T14:52:17.309Z,66.46
2018-07-30T14:54:50.049Z,66.44
2018-07-30T14:57:22.481Z,65.81
2018-07-30T14:59:55.177Z,66.66
2018-07-30T15:02:27.673Z,68.22
2018-07-30T15:05:05.194Z,67.97
2018-07-30T15:07:42.822Z,68.31
2018-07-30T15:10:14.985Z,69.73
2018-07-30T15:12:48.463Z,69.32
2018-07-30T15:15:21.518Z,69.88
2018-07-30T15:17:54.694Z,69.46
2018-07-30T15:20:26.874Z,70.29
2018-07-30T15:22:58.885Z,70.69
2018-07-30T15:25:30.692Z,71.00
2018-07-30T15:28:02.635Z,71.40
2018-07-30T15:30:34.384Z,72.58
2018-07-30T15:33:06.313Z,71.31
2018-07-30T15:35:38.043Z,71.48
2018-07-30T15:38:10.060Z,71.38
2018-07-30T15:40:41.840Z,69.57
2018-07-30T15:43:13.936Z,70.20
2018-07-30T15:45:45.849Z,68.80
2018-07-30T15:48:17.850Z,69.12
2018-07-30T15:50:49.721Z,69.03
2018-07-30T15:53:21.625Z,68.87
2018-07-30T15:55:53.682Z,68.28
2018-07-30T15:58:25.473Z,67.16
2018-07-30T16:00:57.198Z,67.88
2018-07-30T16:03:29.281Z,66.77
2018-07-30T16:06:01.460Z,66.44
2018-07-30T16:08:34.140Z,65.54
2018-07-30T16:11:05.982Z,65.22
2018-07-30T16:13:38.014Z,65.79
2018-07-30T16:16:09.946Z,63.66
2018-07-30T16:18:41.700Z,64.69
2018-07-30T16:21:13.654Z,65.10
2018-07-30T16:23:45.553Z,64.38
2018-07-30T16:26:17.084Z,63.83
2018-07-30T16:28:49.242Z,63.89
2018-07-30T16:31:20.952Z,64.37
2018-07-30T16:33:52.927Z,63.37
2018-07-30T16:36:24.873Z,64.19
2018-07-30T16:38:56.733Z,64.05
2018-07-30T16:41:28.633Z,64.93
2018-07-30T16:44:00.756Z,63.46
2018-07-30T16:46:33.360Z,63.36
2018-07-30T16:49:05.105Z,63.53
2018-07-30T16:51:36.982Z,63.17
2018-07-30T16:54:10.317Z,63.87
2018-07-30T16:56:42.551Z,64.30
2018-07-30T16:59:14.805Z,63.88
2018-07-30T17:01:47.145Z,62.40
2018-07-30T17:04:19.572Z,63.31
2018-07-30T17:06:52.151Z,61.99
2018-07-30T17:09:25.876Z,62.94
2018-07-30T17:11:58.066Z,63.30
2018-07-30T17:14:29.904Z,63.21
2018-07-30T17:17:02.746Z,59.07
2018-07-30T17:19:34.966Z,60.16
2018-07-30T17:22:07.081Z,59.92
2018-07-30T17:24:39.065Z,61.30
2018-07-30T17:27:11.523Z,62.70
2018-07-30T17:29:43.972Z,60.95
2018-07-30T17:32:16.011Z,61.44
2018-07-30T17:34:48.283Z,62.89
2018-07-30T17:37:20.389Z,62.94
2018-07-30T17:39:52.336Z,61.58
2018-07-30T17:42:24.395Z,61.97
2018-07-30T17:44:55.963Z,61.65
2018-07-30T17:47:28.395Z,63.50
2018-07-30T17:50:00.193Z,62.79
2018-07-30T17:52:32.008Z,62.71
2018-07-30T17:55:03.938Z,61.89
2018-07-30T17:57:35.900Z,61.83
2018-07-30T18:00:09.100Z,63.67
2018-07-30T18:02:41.079Z,62.48
2018-07-30T18:05:13.353Z,63.80
2018-07-30T18:07:45.069Z,63.84
2018-07-30T18:10:17.410Z,62.98
2018-07-30T18:12:49.663Z,64.75
2018-07-30T18:15:21.364Z,63.58
2018-07-30T18:17:53.273Z,63.18
2018-07-30T18:23:01.866Z,64.06
2018-07-30T18:25:33.881Z,64.07
2018-07-30T18:28:05.667Z,65.18
2018-07-30T18:30:37.544Z,65.00
2018-07-30T18:33:09.589Z,65.08
2018-07-30T18:35:41.476Z,65.09
2018-07-30T18:38:13.529Z,65.09
2018-07-30T18:40:45.385Z,66.08
2018-07-30T18:43:17.540Z,65.64
2018-07-30T18:45:50.244Z,66.43
2018-07-30T18:48:22.092Z,64.49
2018-07-30T18:50:53.476Z,65.72
2018-07-30T18:53:25.584Z,65.41
2018-07-30T18:55:57.301Z,65.21
2018-07-30T18:58:29.230Z,66.68
2018-07-30T19:01:01.024Z,66.87
2018-07-30T19:03:32.737Z,67.18
2018-07-30T19:06:04.602Z,66.43
2018-07-30T19:08:36.266Z,67.75
2018-07-30T19:11:08.979Z,68.13
2018-07-30T19:13:40.815Z,68.16
2018-07-30T19:16:12.486Z,68.10
2018-07-30T19:18:44.320Z,67.93
2018-07-30T19:21:16.010Z,68.40
2018-07-30T19:23:47.785Z,67.53
2018-07-30T19:26:19.504Z,68.84
2018-07-30T19:28:51.492Z,66.70
2018-07-30T19:31:23.202Z,67.25
2018-07-30T19:33:55.128Z,67.52
2018-07-30T19:36:26.937Z,67.39
2018-07-30T19:38:58.804Z,67.27
2018-07-30T19:41:30.743Z,65.73
2018-07-30T19:44:02.367Z,65.60
2018-07-30T19:46:34.188Z,64.77
2018-07-30T19:49:06.438Z,64.44
2018-07-30T19:51:38.109Z,64.78
2018-07-30T19:54:10.084Z,64.69
2018-07-30T19:56:41.663Z,66.27
2018-07-30T19:59:13.524Z,67.05
2018-07-30T20:01:45.393Z,65.97
2018-07-30T20:04:17.271Z,66.19
2018-07-30T20:06:48.938Z,65.84
2018-07-30T20:09:21.635Z,66.63
2018-07-30T20:11:53.810Z,73.79
2018-07-30T20:14:25.458Z,73.79
2018-07-30T20:16:57.221Z,72.03
2018-07-30T20:19:29.559Z,67.24
2018-07-30T20:22:00.978Z,70.72
2018-07-30T20:24:32.873Z,70.34
2018-07-30T20:27:04.332Z,70.67
2018-07-30T20:29:36.236Z,70.73
2018-07-30T20:32:08.234Z,70.41
2018-07-30T20:34:39.967Z,68.32
2018-07-30T20:37:11.857Z,70.63
2018-07-30T20:39:43.560Z,70.75
2018-07-30T20:42:15.496Z,70.19
2018-07-30T20:44:47.282Z,70.42
2018-07-30T20:47:19.190Z,70.71
2018-07-30T20:49:50.976Z,71.04
2018-07-30T20:52:22.848Z,69.84
2018-07-30T20:54:54.810Z,69.66
2018-07-30T20:57:26.543Z,70.40
2018-07-30T20:59:58.204Z,69.70
2018-07-30T21:02:29.994Z,69.11
2018-07-30T21:05:01.809Z,69.66
2018-07-30T21:07:33.623Z,69.39
2018-07-30T21:10:05.526Z,69.03
2018-07-30T21:12:37.689Z,68.42
2018-07-30T21:15:09.103Z,69.37
2018-07-30T21:17:40.950Z,69.26
2018-07-30T21:20:12.634Z,68.72
2018-07-30T21:22:44.502Z,68.90
2018-07-30T21:25:16.179Z,69.11
2018-07-30T21:27:47.988Z,68.39
2018-07-30T21:30:19.653Z,67.60
2018-07-30T21:32:51.570Z,68.52
2018-07-30T21:35:22.972Z,68.98
2018-07-30T21:37:54.629Z,68.12
2018-07-30T21:40:26.260Z,68.71
2018-07-30T21:42:58.242Z,67.76
2018-07-30T21:45:29.988Z,67.46
2018-07-30T21:48:01.848Z,67.39
2018-07-30T21:50:33.549Z,67.83
2018-07-30T21:53:05.497Z,66.93
2018-07-30T21:55:37.460Z,66.95
2018-07-30T21:58:09.320Z,66.77
2018-07-30T22:00:44.435Z,66.34
2018-07-30T22:03:16.300Z,66.47
2018-07-30T22:05:52.433Z,66.81
2018-07-30T22:08:24.292Z,66.39
2018-07-30T22:10:55.955Z,66.57
2018-07-30T22:13:27.523Z,67.21
2018-07-30T22:15:59.105Z,67.77
2018-07-30T22:18:30.939Z,66.77
2018-07-30T22:21:02.609Z,66.86
2018-07-30T22:23:34.370Z,66.88
2018-07-30T22:26:06.309Z,67.54
2018-07-30T22:28:38.197Z,66.95
2018-07-30T22:31:09.894Z,64.90
2018-07-30T22:33:43.454Z,64.48
2018-07-30T22:36:15.020Z,66.60
2018-07-30T22:38:46.883Z,65.76
2018-07-30T22:41:18.322Z,64.64
2018-07-30T22:43:50.394Z,65.45
2018-07-30T22:46:22.104Z,65.28
2018-07-30T22:48:53.835Z,66.28
2018-07-30T22:51:26.028Z,65.41
2018-07-30T22:53:57.564Z,66.17
2018-07-30T22:56:29.323Z,66.12
2018-07-30T22:59:00.944Z,65.62
2018-07-30T23:01:32.559Z,66.43
2018-07-30T23:04:04.401Z,66.32
2018-07-30T23:06:36.148Z,65.72
2018-07-30T23:09:09.608Z,66.07
2018-07-30T23:11:42.965Z,65.68
2018-07-30T23:14:14.771Z,66.81
2018-07-30T23:16:46.637Z,66.21
2018-07-30T23:19:18.528Z,66.63
2018-07-30T23:21:50.236Z,65.87
2018-07-30T23:24:21.762Z,67.08
2018-07-30T23:26:53.433Z,66.94
2018-07-30T23:29:25.077Z,66.80
2018-07-30T23:31:56.730Z,66.89
2018-07-30T23:34:29.898Z,66.41
2018-07-30T23:37:01.793Z,66.20
2018-07-30T23:39:33.606Z,66.60
2018-07-30T23:42:05.451Z,66.53
2018-07-30T23:44:37.347Z,66.74
2018-07-30T23:47:09.102Z,65.41
2018-07-30T23:49:41.014Z,65.48
2018-07-30T23:52:12.926Z,66.37
2018-07-30T23:54:44.672Z,66.56
2018-07-30T23:57:16.321Z,66.48
2018-07-30T23:59:48.174Z,66.59
